Time;durP1;ratioP1;P1;durP2;ratioP2;P2;SDS_P1;SDS_P2;PMS_P1;PMS_P2;Temp;Humidity;BMP_temperature;BMP_pressure;BME280_temperature;BME280_humidity;BME280_pressure;Samples;Min_cycle;Max_cycle;Signal;HPM_P1;HPM_P2
2021/12/13 11:10:25;;;;;;;0.10;0.10;;;;;;;;;;5086932;27;20613;-71
2021/12/13 11:12:54;;;;;;;5.27;2.10;;;;;;;;;;5071816;28;20206;-71
2021/12/13 11:15:23;;;;;;;0.07;0.07;;;;;;;;;;5070611;28;21088;-71
2021/12/13 11:17:51;;;;;;;2.83;2.10;;;;;;;;;;5075035;28;20206;-69
2021/12/13 11:20:21;;;;;;;1.30;1.03;;;;;;;;;;5068615;28;20222;-69
2021/12/13 11:22:49;;;;;;;3.53;2.30;;;;;;;;;;5071698;28;20324;-71
2021/12/13 11:25:18;;;;;;;1.83;1.73;;;;;;;;;;5068453;28;20214;-71
2021/12/13 11:27:47;;;;;;;0.30;0.30;;;;;;;;;;5067526;28;20194;-70
2021/12/13 11:30:16;;;;;;;0.17;0.17;;;;;;;;;;5073763;28;20210;-71
2021/12/13 11:33:01;;;;;;;2.63;1.23;;;;;;;;;;5073255;28;20206;-70
2021/12/13 11:35:47;;;;;;;1.87;1.77;;;;;;;;;;5069614;28;20237;-67
2021/12/13 11:38:26;;;;;;;2.00;1.13;;;;;;;;;;5072106;28;20202;-69
2021/12/13 11:41:08;;;;;;;2.33;1.53;;;;;;;;;;5071655;28;20306;-70
2021/12/13 11:43:54;;;;;;;1.67;1.03;;;;;;;;;;5073089;28;20207;-70
2021/12/13 11:46:35;;;;;;;0.90;0.90;;;;;;;;;;5074693;28;20198;-71
2021/12/13 11:49:18;;;;;;;1.13;1.13;;;;;;;;;;5073238;28;20204;-71
2021/12/13 11:52:05;;;;;;;1.27;1.20;;;;;;;;;;5073886;28;20202;-70
2021/12/13 11:54:51;;;;;;;1.50;1.40;;;;;;;;;;5073474;28;20206;-71
2021/12/13 11:57:33;;;;;;;2.40;1.57;;;;;;;;;;5072513;28;20210;-71
2021/12/13 12:00:19;;;;;;;4.37;1.47;;;;;;;;;;5059612;28;20226;-71
2021/12/13 12:03:00;;;;;;;0.50;0.50;;;;;;;;;;5068672;28;20678;-70
2021/12/13 12:05:42;;;;;;;0.20;0.20;;;;;;;;;;5074346;28;20216;-71
2021/12/13 12:08:33;;;;;;;0.40;0.40;;;;;;;;;;5068377;28;20198;-72
2021/12/13 12:11:11;;;;;;;1.53;1.33;;;;;;;;;;5073575;28;20199;-70
2021/12/13 12:13:40;;;;;;;0.10;0.10;;;;;;;;;;5072415;28;20226;-71
2021/12/13 12:16:09;;;;;;;0.60;0.60;;;;;;;;;;5072577;28;20201;-71
2021/12/13 12:18:39;;;;;;;0.20;0.20;;;;;;;;;;5071836;28;20222;-71
2021/12/13 12:21:25;;;;;;;3.10;1.90;;;;;;;;;;5057244;28;20254;-71
2021/12/13 12:23:53;;;;;;;0.40;0.40;;;;;;;;;;5053223;28;20226;-74
2021/12/13 12:26:22;;;;;;;0.43;0.43;;;;;;;;;;5056923;28;20203;-73
2021/12/13 12:28:50;;;;;;;0.00;0.00;;;;;;;;;;5058379;28;20210;-70
2021/12/13 12:31:19;;;;;;;2.30;1.57;;;;;;;;;;5053872;28;20218;-71
2021/12/13 12:33:47;;;;;;;0.20;0.20;;;;;;;;;;5052212;28;20649;-71
2021/12/13 12:36:18;;;;;;;0.90;0.90;;;;;;;;;;5050043;28;20203;-72
2021/12/13 12:39:20;;;;;;;3.63;2.20;;;;;;;;;;5053054;28;20243;-71
2021/12/13 12:41:53;;;;;;;0.30;0.30;;;;;;;;;;5050189;28;20589;-72
2021/12/13 12:44:23;;;;;;;3.40;0.90;;;;;;;;;;5053832;28;20203;-71
2021/12/13 12:46:53;;;;;;;1.13;1.07;;;;;;;;;;5048921;28;20626;-71
2021/12/13 12:49:23;;;;;;;1.40;1.20;;;;;;;;;;5052987;28;20222;-72
2021/12/13 12:51:52;;;;;;;0.30;0.30;;;;;;;;;;5054866;28;20983;-72
2021/12/13 12:54:22;;;;;;;1.17;0.90;;;;;;;;;;5052782;28;20376;-72
2021/12/13 12:56:51;;;;;;;0.00;0.00;;;;;;;;;;5054529;28;20211;-74
2021/12/13 12:59:20;;;;;;;0.40;0.40;;;;;;;;;;5060453;28;20237;-74
2021/12/13 13:01:48;;;;;;;0.63;0.63;;;;;;;;;;5054348;28;20208;-75
2021/12/13 13:04:21;;;;;;;0.40;0.40;;;;;;;;;;5056062;28;20199;-73
2021/12/13 13:06:53;;;;;;;0.93;0.40;;;;;;;;;;5057665;28;20256;-72
2021/12/13 13:09:20;;;;;;;0.37;0.37;;;;;;;;;;5055158;28;20623;-73
2021/12/13 13:11:49;;;;;;;0.00;0.00;;;;;;;;;;5056332;28;20214;-72
2021/12/13 13:14:18;;;;;;;1.70;1.20;;;;;;;;;;5054911;28;20214;-72
2021/12/13 13:16:47;;;;;;;0.00;0.00;;;;;;;;;;5055413;28;20195;-74
2021/12/13 13:19:27;;;;;;;1.97;1.20;;;;;;;;;;5058231;28;20226;-74
2021/12/13 13:21:54;;;;;;;0.73;0.50;;;;;;;;;;5060339;28;22354;-72
2021/12/13 13:24:22;;;;;;;1.63;1.53;;;;;;;;;;5057267;28;20303;-72
2021/12/13 13:26:50;;;;;;;3.33;2.50;;;;;;;;;;5057213;28;20849;-69
2021/12/13 13:29:19;;;;;;;0.90;0.90;;;;;;;;;;5054769;28;20205;-70
2021/12/13 13:31:50;;;;;;;1.10;0.67;;;;;;;;;;5055425;28;22576;-74
2021/12/13 13:34:20;;;;;;;0.10;0.10;;;;;;;;;;5050928;28;20206;-70
2021/12/13 13:36:50;;;;;;;1.17;1.10;;;;;;;;;;5060991;28;20206;-72
2021/12/13 13:39:23;;;;;;;1.80;1.20;;;;;;;;;;5058021;28;20234;-74
2021/12/13 13:41:54;;;;;;;1.10;1.10;;;;;;;;;;5054315;28;20202;-71
2021/12/13 13:44:23;;;;;;;1.50;1.37;;;;;;;;;;5054143;28;20686;-72
2021/12/13 13:47:00;;;;;;;0.27;0.27;;;;;;;;;;5054064;28;20195;-72
2021/12/13 13:49:27;;;;;;;0.77;0.73;;;;;;;;;;5057887;28;20217;-72
2021/12/13 13:51:56;;;;;;;1.07;0.97;;;;;;;;;;5054777;28;20206;-72
2021/12/13 13:54:23;;;;;;;0.23;0.23;;;;;;;;;;5059473;28;20196;-72
2021/12/13 13:56:51;;;;;;;0.10;0.10;;;;;;;;;;5058973;28;20207;-72
2021/12/13 13:59:20;;;;;;;0.20;0.20;;;;;;;;;;5057265;28;20219;-72
2021/12/13 14:01:51;;;;;;;0.20;0.20;;;;;;;;;;5056459;28;20231;-72
2021/12/13 14:04:22;;;;;;;2.83;2.43;;;;;;;;;;5060170;28;20211;-72
2021/12/13 14:06:51;;;;;;;1.07;1.00;;;;;;;;;;5057350;28;20558;-71
2021/12/13 14:09:22;;;;;;;1.03;0.77;;;;;;;;;;5057837;28;20309;-70
2021/12/13 14:11:51;;;;;;;0.30;0.30;;;;;;;;;;5058768;28;20203;-68
2021/12/13 14:14:19;;;;;;;2.00;1.07;;;;;;;;;;5053821;28;20580;-70
2021/12/13 14:16:47;;;;;;;0.40;0.40;;;;;;;;;;5055835;28;20207;-70
2021/12/13 14:19:15;;;;;;;0.30;0.30;;;;;;;;;;5057172;28;20623;-72
2021/12/13 14:21:46;;;;;;;0.60;0.53;;;;;;;;;;5054632;28;20195;-71
2021/12/13 14:24:15;;;;;;;0.47;0.20;;;;;;;;;;5056880;28;20633;-71
2021/12/13 14:26:44;;;;;;;1.83;0.83;;;;;;;;;;5058942;28;20199;-71
2021/12/13 14:29:12;;;;;;;0.83;0.83;;;;;;;;;;5055417;28;20203;-71
2021/12/13 14:31:41;;;;;;;0.87;0.87;;;;;;;;;;5057165;28;20211;-71
2021/12/13 14:34:10;;;;;;;1.27;1.07;;;;;;;;;;5057323;28;20218;-71
2021/12/13 14:36:38;;;;;;;0.83;0.73;;;;;;;;;;5060888;28;20310;-71
2021/12/13 14:39:09;;;;;;;9.90;1.03;;;;;;;;;;5057005;28;20199;-71
2021/12/13 14:41:38;;;;;;;0.83;0.83;;;;;;;;;;5056779;28;20195;-72
2021/12/13 14:44:08;;;;;;;0.90;0.90;;;;;;;;;;5054217;28;20196;-72
2021/12/13 14:46:43;;;;;;;0.20;0.20;;;;;;;;;;5058479;28;20240;-73
2021/12/13 14:49:13;;;;;;;2.40;1.13;;;;;;;;;;5058069;28;20582;-73
2021/12/13 14:51:42;;;;;;;0.40;0.30;;;;;;;;;;5058709;28;20199;-72
2021/12/13 14:54:10;;;;;;;0.27;0.27;;;;;;;;;;5058186;28;20222;-72
2021/12/13 14:56:38;;;;;;;0.73;0.73;;;;;;;;;;5057021;28;20207;-72
2021/12/13 14:59:08;;;;;;;1.47;1.13;;;;;;;;;;5055927;28;20206;-71
2021/12/13 15:01:38;;;;;;;2.27;2.00;;;;;;;;;;5053608;28;20203;-72
2021/12/13 15:04:08;;;;;;;0.90;0.90;;;;;;;;;;5055997;28;20211;-72
2021/12/13 15:06:38;;;;;;;0.10;0.10;;;;;;;;;;5058068;28;20202;-71
2021/12/13 15:09:07;;;;;;;0.67;0.67;;;;;;;;;;5057816;28;20600;-71
2021/12/13 15:11:37;;;;;;;0.80;0.80;;;;;;;;;;5057616;28;20207;-72
2021/12/13 15:14:07;;;;;;;0.93;0.93;;;;;;;;;;5057390;28;20203;-68
2021/12/13 15:16:38;;;;;;;0.47;0.47;;;;;;;;;;5057168;28;20211;-71
2021/12/13 15:19:07;;;;;;;2.53;2.27;;;;;;;;;;5056537;28;20249;-72
2021/12/13 15:21:40;;;;;;;0.87;0.70;;;;;;;;;;5057931;28;20210;-71
2021/12/13 15:24:08;;;;;;;0.13;0.13;;;;;;;;;;5054591;28;20211;-72
2021/12/13 15:26:37;;;;;;;2.37;2.27;;;;;;;;;;5056225;28;20207;-71
2021/12/13 15:29:06;;;;;;;0.00;0.00;;;;;;;;;;5059002;28;20336;-72
2021/12/13 15:31:37;;;;;;;0.57;0.57;;;;;;;;;;5057805;28;20707;-69
2021/12/13 15:34:07;;;;;;;0.90;0.90;;;;;;;;;;5057660;28;20256;-71
2021/12/13 15:36:34;;;;;;;2.00;1.90;;;;;;;;;;5054694;28;20273;-72
2021/12/13 15:39:04;;;;;;;0.50;0.50;;;;;;;;;;5057373;28;20195;-72
2021/12/13 15:41:32;;;;;;;0.00;0.00;;;;;;;;;;5056382;28;20214;-71
2021/12/13 15:44:00;;;;;;;0.90;0.90;;;;;;;;;;5057628;28;20207;-73
2021/12/13 15:46:29;;;;;;;0.10;0.10;;;;;;;;;;5056050;28;20196;-72
2021/12/13 15:51:46;;;;;;;1.07;0.33;;;;;;;;;;5056024;28;20233;-71
2021/12/13 15:54:15;;;;;;;1.53;1.43;;;;;;;;;;5055352;28;20207;-72
2021/12/13 15:56:43;;;;;;;0.30;0.30;;;;;;;;;;5061231;28;20247;-72
2021/12/13 15:59:12;;;;;;;1.80;1.70;;;;;;;;;;5060826;28;20671;-72
2021/12/13 16:01:42;;;;;;;3.33;1.00;;;;;;;;;;5061529;28;20198;-71
2021/12/13 16:04:10;;;;;;;0.53;0.10;;;;;;;;;;5058869;28;20204;-72
2021/12/13 16:06:39;;;;;;;0.60;0.30;;;;;;;;;;5061578;28;20206;-73
2021/12/13 16:09:09;;;;;;;1.80;1.13;;;;;;;;;;5059024;28;20593;-73
2021/12/13 16:11:38;;;;;;;0.30;0.27;;;;;;;;;;5058847;28;20281;-71
2021/12/13 16:14:20;;;;;;;1.13;1.03;;;;;;;;;;5063295;28;20205;-71
2021/12/13 16:16:55;;;;;;;1.33;0.73;;;;;;;;;;5060787;28;20198;-71
2021/12/13 16:19:33;;;;;;;1.97;1.87;;;;;;;;;;5059907;28;20675;-71
2021/12/13 16:22:01;;;;;;;0.67;0.40;;;;;;;;;;5057522;28;20195;-73
2021/12/13 16:24:30;;;;;;;2.30;2.10;;;;;;;;;;5058262;28;20695;-73
2021/12/13 16:26:57;;;;;;;1.47;1.37;;;;;;;;;;5058656;28;20686;-72
2021/12/13 16:29:26;;;;;;;0.60;0.60;;;;;;;;;;5059453;28;20203;-72
2021/12/13 16:31:54;;;;;;;0.67;0.67;;;;;;;;;;5062473;28;20241;-72
2021/12/13 16:34:22;;;;;;;1.50;1.07;;;;;;;;;;5061643;28;20211;-72
2021/12/13 16:36:51;;;;;;;0.67;0.67;;;;;;;;;;5060555;28;20203;-70
2021/12/13 16:39:20;;;;;;;0.10;0.10;;;;;;;;;;5057041;28;20199;-70
2021/12/13 16:41:51;;;;;;;0.70;0.67;;;;;;;;;;5060780;28;20198;-72
2021/12/13 16:44:20;;;;;;;1.40;1.30;;;;;;;;;;5063143;28;20195;-72
2021/12/13 16:46:48;;;;;;;10.60;6.60;;;;;;;;;;5060684;28;20214;-71
2021/12/13 16:49:17;;;;;;;1.33;1.03;;;;;;;;;;5059931;28;20225;-73
2021/12/13 16:51:47;;;;;;;0.20;0.17;;;;;;;;;;5059185;28;20230;-72
2021/12/13 16:54:16;;;;;;;1.33;1.30;;;;;;;;;;5057182;28;20203;-71
2021/12/13 16:56:44;;;;;;;1.70;1.60;;;;;;;;;;5055907;28;20211;-73
2021/12/13 16:59:13;;;;;;;0.67;0.67;;;;;;;;;;5060186;28;20194;-73
2021/12/13 17:01:42;;;;;;;0.33;0.33;;;;;;;;;;5059331;28;20221;-71
2021/12/13 17:04:12;;;;;;;2.07;1.87;;;;;;;;;;5058674;28;20198;-70
2021/12/13 17:06:44;;;;;;;3.60;1.60;;;;;;;;;;5064118;28;20286;-71
2021/12/13 17:09:12;;;;;;;0.57;0.57;;;;;;;;;;5060719;28;20329;-69
2021/12/13 17:11:40;;;;;;;4.43;3.43;;;;;;;;;;5055766;28;20234;-71
2021/12/13 17:14:17;;;;;;;0.77;0.67;;;;;;;;;;5058200;28;20202;-72
2021/12/13 17:16:50;;;;;;;1.53;1.43;;;;;;;;;;5060821;28;20205;-72
2021/12/13 17:19:17;;;;;;;2.30;1.70;;;;;;;;;;5060076;28;20210;-71
2021/12/13 17:21:47;;;;;;;0.10;0.10;;;;;;;;;;5055439;28;20207;-73
2021/12/13 17:24:19;;;;;;;1.43;1.20;;;;;;;;;;5062700;28;20579;-72
2021/12/13 17:26:48;;;;;;;3.03;1.73;;;;;;;;;;5059417;28;20223;-68
2021/12/13 17:29:23;;;;;;;2.10;2.00;;;;;;;;;;5059964;28;20215;-70
2021/12/13 17:32:01;;;;;;;1.50;0.97;;;;;;;;;;5058768;28;20235;-73
2021/12/13 17:34:40;;;;;;;1.90;1.40;;;;;;;;;;5057084;28;20215;-71
2021/12/13 17:37:11;;;;;;;1.60;1.33;;;;;;;;;;5058247;28;20203;-74
2021/12/13 17:39:41;;;;;;;0.30;0.30;;;;;;;;;;5052076;28;20802;-73
2021/12/13 17:42:11;;;;;;;1.30;1.20;;;;;;;;;;5053983;28;21780;-68
2021/12/13 17:44:40;;;;;;;0.77;0.70;;;;;;;;;;5058701;28;20265;-69
2021/12/13 17:47:07;;;;;;;0.60;0.60;;;;;;;;;;5059174;28;20203;-71
2021/12/13 17:49:45;;;;;;;0.93;0.77;;;;;;;;;;5057186;28;20199;-70
2021/12/13 17:52:13;;;;;;;0.00;0.00;;;;;;;;;;5060726;28;20222;-70
2021/12/13 17:54:48;;;;;;;3.30;1.30;;;;;;;;;;5057934;28;20229;-71
2021/12/13 17:57:15;;;;;;;1.17;1.07;;;;;;;;;;5059704;28;20210;-71
2021/12/13 17:59:45;;;;;;;0.10;0.10;;;;;;;;;;5059390;28;20191;-72
2021/12/13 18:02:14;;;;;;;0.63;0.63;;;;;;;;;;5067701;28;20214;-72
2021/12/13 18:04:52;;;;;;;0.40;0.40;;;;;;;;;;5061736;28;20218;-72
2021/12/13 18:07:29;;;;;;;6.00;2.23;;;;;;;;;;5056800;28;20195;-71
2021/12/13 18:09:57;;;;;;;0.23;0.23;;;;;;;;;;5054455;28;20715;-72
2021/12/13 18:12:29;;;;;;;3.20;1.77;;;;;;;;;;5065657;28;20725;-70
2021/12/13 18:15:08;;;;;;;0.20;0.20;;;;;;;;;;5060046;28;20207;-71
2021/12/13 18:17:39;;;;;;;0.10;0.10;;;;;;;;;;5056413;28;20204;-72
2021/12/13 18:20:12;;;;;;;0.00;0.00;;;;;;;;;;5060061;28;20222;-72
2021/12/13 18:22:41;;;;;;;2.63;1.83;;;;;;;;;;5062321;28;20202;-71
2021/12/13 18:25:10;;;;;;;1.90;1.53;;;;;;;;;;5059028;28;20214;-68
2021/12/13 18:27:40;;;;;;;0.00;0.00;;;;;;;;;;5052733;28;20206;-70
2021/12/13 18:30:10;;;;;;;2.53;1.73;;;;;;;;;;5057750;28;20211;-72
2021/12/13 18:39:13;;;;;;;2.57;2.47;;;;;;;;;;5078336;27;20645;-72
2021/12/13 18:41:42;;;;;;;0.63;0.50;;;;;;;;;;5079111;28;20203;-72
2021/12/13 18:44:18;;;;;;;0.20;0.10;;;;;;;;;;5079005;28;20205;-70
2021/12/13 18:46:48;;;;;;;3.93;2.83;;;;;;;;;;5075104;28;20327;-70
2021/12/13 18:49:17;;;;;;;4.40;1.60;;;;;;;;;;5086365;28;20204;-72
2021/12/13 18:51:47;;;;;;;0.53;0.53;;;;;;;;;;5083118;28;20201;-70
2021/12/13 18:54:18;;;;;;;3.73;3.50;;;;;;;;;;5085990;28;20265;-71
2021/12/13 18:56:46;;;;;;;12.37;8.70;;;;;;;;;;5079020;28;20348;-70
2021/12/13 18:59:25;;;;;;;0.73;0.73;;;;;;;;;;5076718;28;21731;-71
2021/12/13 19:01:58;;;;;;;0.00;0.00;;;;;;;;;;5080000;28;20205;-68
2021/12/13 19:04:27;;;;;;;1.17;1.10;;;;;;;;;;5078277;28;20214;-68
2021/12/13 19:06:58;;;;;;;0.33;0.33;;;;;;;;;;5078072;28;20291;-70
2021/12/13 19:09:31;;;;;;;0.83;0.83;;;;;;;;;;5077600;28;20281;-69
2021/12/13 19:12:04;;;;;;;0.83;0.83;;;;;;;;;;5080483;28;20213;-70
2021/12/13 19:14:34;;;;;;;0.93;0.93;;;;;;;;;;5079325;28;20252;-70
2021/12/13 19:17:05;;;;;;;1.77;1.67;;;;;;;;;;5081555;28;20569;-71
2021/12/13 20:03:22;;;;;;;1.10;0.40;;;;;;;;;;5078230;27;20617;-68
2021/12/13 20:05:55;;;;;;;0.00;0.00;;;;;;;;;;5076033;28;20198;-69
2021/12/13 20:08:25;;;;;;;0.83;0.83;;;;;;;;;;5076404;28;20190;-70
2021/12/13 20:10:53;;;;;;;1.27;1.10;;;;;;;;;;5077683;28;20208;-70
2021/12/13 20:13:26;;;;;;;3.80;2.90;;;;;;;;;;5082612;28;20199;-68
2021/12/13 20:15:58;;;;;;;0.07;0.07;;;;;;;;;;5078680;28;20202;-69
2021/12/13 20:18:32;;;;;;;0.00;0.00;;;;;;;;;;5080254;28;20210;-69
2021/12/13 20:21:01;;;;;;;0.73;0.73;;;;;;;;;;5079786;28;20214;-67
2021/12/13 20:23:30;;;;;;;0.20;0.20;;;;;;;;;;5082771;28;20210;-70
2021/12/13 20:25:59;;;;;;;1.70;0.70;;;;;;;;;;5082114;28;21539;-70
2021/12/13 20:28:30;;;;;;;1.37;1.27;;;;;;;;;;5079627;28;20198;-71
2021/12/13 20:31:00;;;;;;;1.27;1.17;;;;;;;;;;5083982;28;20207;-69
2021/12/13 20:33:29;;;;;;;1.80;1.70;;;;;;;;;;5087494;28;20202;-71
2021/12/13 20:36:03;;;;;;;1.13;1.13;;;;;;;;;;5086175;28;20685;-70
2021/12/13 20:38:32;;;;;;;0.73;0.57;;;;;;;;;;5080630;28;20210;-70
2021/12/13 20:41:01;;;;;;;0.13;0.10;;;;;;;;;;5079088;28;20229;-69
2021/12/13 20:43:31;;;;;;;0.47;0.47;;;;;;;;;;5079999;28;20206;-69
2021/12/13 20:46:05;;;;;;;3.10;2.87;;;;;;;;;;5076308;28;20206;-70
2021/12/13 20:48:34;;;;;;;1.63;1.53;;;;;;;;;;5079140;28;20285;-70
2021/12/13 20:51:05;;;;;;;0.00;0.00;;;;;;;;;;5077778;28;20198;-68
2021/12/13 20:53:33;;;;;;;1.30;1.07;;;;;;;;;;5086436;28;20202;-69
2021/12/13 20:56:01;;;;;;;0.43;0.17;;;;;;;;;;5081631;28;20201;-69
2021/12/13 20:58:31;;;;;;;2.10;1.27;;;;;;;;;;5079472;28;20199;-71
2021/12/13 21:01:01;;;;;;;0.47;0.47;;;;;;;;;;5077759;28;20187;-69
2021/12/13 21:03:31;;;;;;;0.83;0.83;;;;;;;;;;5078389;28;20198;-69
2021/12/13 21:05:59;;;;;;;1.80;1.70;;;;;;;;;;5075876;28;20213;-69
2021/12/13 21:08:31;;;;;;;0.00;0.00;;;;;;;;;;5079070;28;20205;-69
2021/12/13 21:11:00;;;;;;;1.73;1.63;;;;;;;;;;5075159;28;20210;-69
2021/12/13 21:13:29;;;;;;;0.40;0.30;;;;;;;;;;5074382;28;20223;-71
2021/12/13 21:16:00;;;;;;;1.47;1.30;;;;;;;;;;5064390;28;20225;-71
2021/12/13 21:18:30;;;;;;;0.63;0.63;;;;;;;;;;5066464;28;20290;-70
2021/12/13 21:20:59;;;;;;;0.47;0.43;;;;;;;;;;5064376;28;20211;-70
2021/12/13 21:23:28;;;;;;;2.60;2.27;;;;;;;;;;5064176;28;20198;-71
2021/12/13 21:25:59;;;;;;;1.50;1.40;;;;;;;;;;5061960;28;20721;-71
2021/12/13 21:28:28;;;;;;;2.33;2.13;;;;;;;;;;5066102;28;20636;-71
2021/12/13 21:30:58;;;;;;;0.67;0.67;;;;;;;;;;5065071;28;20203;-71
2021/12/13 21:33:26;;;;;;;1.80;0.27;;;;;;;;;;5064046;28;20238;-70
2021/12/13 21:36:06;;;;;;;2.00;1.40;;;;;;;;;;5062829;28;20203;-69
2021/12/13 21:41:25;;;;;;;1.03;1.03;;;;;;;;;;5063657;28;20636;-69
2021/12/13 21:43:54;;;;;;;1.00;1.00;;;;;;;;;;5065178;28;20208;-72
2021/12/13 21:46:24;;;;;;;1.57;1.23;;;;;;;;;;5068369;28;20583;-73
2021/12/13 21:48:54;;;;;;;0.17;0.17;;;;;;;;;;5065231;28;20207;-71
2021/12/13 21:51:24;;;;;;;1.60;0.83;;;;;;;;;;5064323;28;20609;-70
2021/12/13 21:53:53;;;;;;;4.23;3.10;;;;;;;;;;5068022;28;20211;-71
2021/12/13 21:56:23;;;;;;;3.33;2.93;;;;;;;;;;5070208;28;20675;-71
2021/12/13 21:58:53;;;;;;;7.53;5.27;;;;;;;;;;5071350;28;20203;-71
2021/12/13 22:01:25;;;;;;;1.57;1.47;;;;;;;;;;5070239;28;20235;-71
2021/12/13 22:03:55;;;;;;;4.00;3.53;;;;;;;;;;5065376;28;20187;-72
2021/12/13 22:06:22;;;;;;;2.20;1.90;;;;;;;;;;5063312;28;20207;-72
2021/12/13 22:08:52;;;;;;;0.20;0.20;;;;;;;;;;5070537;28;20203;-71
2021/12/13 22:11:20;;;;;;;0.37;0.37;;;;;;;;;;5064325;28;20643;-72
2021/12/13 22:13:52;;;;;;;3.13;1.60;;;;;;;;;;5065021;28;20241;-72
2021/12/13 22:16:24;;;;;;;2.43;1.57;;;;;;;;;;5063000;28;20207;-71
2021/12/13 22:18:55;;;;;;;2.10;1.47;;;;;;;;;;5066402;28;20660;-71
2021/12/13 22:21:23;;;;;;;1.03;0.93;;;;;;;;;;5068284;28;20195;-72
2021/12/13 22:23:53;;;;;;;1.90;0.43;;;;;;;;;;5067839;28;20333;-73
2021/12/13 22:26:23;;;;;;;1.37;1.27;;;;;;;;;;5067592;28;20213;-70
2021/12/13 22:28:50;;;;;;;9.03;6.97;;;;;;;;;;5068384;28;20206;-71
2021/12/13 22:31:21;;;;;;;1.40;1.23;;;;;;;;;;5068700;28;20694;-72
2021/12/13 22:33:50;;;;;;;2.27;2.07;;;;;;;;;;5062799;28;20277;-72
2021/12/13 22:36:18;;;;;;;3.60;1.53;;;;;;;;;;5059833;28;20599;-71
2021/12/13 22:38:48;;;;;;;0.77;0.57;;;;;;;;;;5059848;28;20571;-71
2021/12/13 22:41:18;;;;;;;2.10;1.43;;;;;;;;;;5059514;28;20207;-71
2021/12/13 22:43:49;;;;;;;0.80;0.80;;;;;;;;;;5057995;28;20218;-71
2021/12/13 22:46:18;;;;;;;1.20;1.10;;;;;;;;;;5059765;28;20668;-70
2021/12/13 22:48:47;;;;;;;1.90;1.07;;;;;;;;;;5058523;28;20906;-72
2021/12/13 22:51:17;;;;;;;2.40;2.30;;;;;;;;;;5060150;28;20217;-71
2021/12/13 22:53:47;;;;;;;0.30;0.30;;;;;;;;;;5061071;28;20230;-71
2021/12/13 22:56:15;;;;;;;2.63;2.13;;;;;;;;;;5057484;28;20203;-72
2021/12/13 22:58:45;;;;;;;0.53;0.53;;;;;;;;;;5059655;28;20210;-71
2021/12/13 23:01:16;;;;;;;3.20;2.93;;;;;;;;;;5058790;28;20218;-72
2021/12/13 23:03:44;;;;;;;0.97;0.97;;;;;;;;;;5059253;28;20218;-70
2021/12/13 23:06:18;;;;;;;3.10;2.77;;;;;;;;;;5060173;28;20202;-69
2021/12/13 23:08:53;;;;;;;1.80;0.43;;;;;;;;;;5059797;28;20201;-71
2021/12/13 23:11:37;;;;;;;1.37;1.27;;;;;;;;;;5060959;28;20202;-71
2021/12/13 23:14:05;;;;;;;0.00;0.00;;;;;;;;;;5063984;28;20325;-70
2021/12/13 23:16:34;;;;;;;0.00;0.00;;;;;;;;;;5058901;28;20199;-70
2021/12/13 23:19:04;;;;;;;0.00;0.00;;;;;;;;;;5058279;28;20206;-70
2021/12/13 23:21:33;;;;;;;0.47;0.47;;;;;;;;;;5059177;28;20199;-70
2021/12/13 23:24:04;;;;;;;4.30;2.60;;;;;;;;;;5057596;28;20218;-71
2021/12/13 23:26:31;;;;;;;0.00;0.00;;;;;;;;;;5061180;28;20199;-72
2021/12/13 23:29:01;;;;;;;1.07;0.90;;;;;;;;;;5058958;28;20291;-71
2021/12/13 23:31:30;;;;;;;1.03;0.93;;;;;;;;;;5058288;28;20202;-70
2021/12/13 23:34:00;;;;;;;2.60;2.40;;;;;;;;;;5058718;28;20702;-71
2021/12/13 23:36:31;;;;;;;1.60;0.53;;;;;;;;;;5059688;28;20203;-72
2021/12/13 23:47:23;;;;;;;0.20;0.20;;;;;;;;;;5060030;28;20276;-73
2021/12/13 23:49:52;;;;;;;0.10;0.10;;;;;;;;;;5059412;28;20205;-72
2021/12/13 23:52:22;;;;;;;0.00;0.00;;;;;;;;;;5059435;28;20237;-71
2021/12/13 23:54:51;;;;;;;2.70;2.50;;;;;;;;;;5059217;28;20217;-70
2021/12/13 23:57:22;;;;;;;0.00;0.00;;;;;;;;;;5059134;28;20203;-71
2021/12/13 23:59:54;;;;;;;0.40;0.40;;;;;;;;;;5060022;28;20294;-72
